sensor_id;sensor_type;location;lat;lon;timestamp;pressure;altitude;pressure_sealevel;temperature
79053;BMP280;68451;49.510;6.026;2023-05-07T00:01:38;98014.47;;;12.07
79053;BMP280;68451;49.510;6.026;2023-05-07T00:04:04;98003.78;;;11.97
79053;BMP280;68451;49.510;6.026;2023-05-07T00:06:31;98016.31;;;11.95
79053;BMP280;68451;49.510;6.026;2023-05-07T00:08:57;97974.22;;;11.61
79053;BMP280;68451;49.510;6.026;2023-05-07T00:11:23;98015.63;;;11.88
79053;BMP280;68451;49.510;6.026;2023-05-07T00:13:48;97971.13;;;11.53
79053;BMP280;68451;49.510;6.026;2023-05-07T00:16:14;98014.47;;;11.84
79053;BMP280;68451;49.510;6.026;2023-05-07T00:18:39;98034.63;;;11.95
79053;BMP280;68451;49.510;6.026;2023-05-07T00:21:05;97987.88;;;11.63
79053;BMP280;68451;49.510;6.026;2023-05-07T00:23:30;98046.13;;;11.94
79053;BMP280;68451;49.510;6.026;2023-05-07T00:25:56;98030.53;;;11.87
79053;BMP280;68451;49.510;6.026;2023-05-07T00:28:21;97995.03;;;11.80
79053;BMP280;68451;49.510;6.026;2023-05-07T00:30:47;98046.00;;;12.12
79053;BMP280;68451;49.510;6.026;2023-05-07T00:33:12;98059.88;;;12.01
79053;BMP280;68451;49.510;6.026;2023-05-07T00:35:38;97854.81;;;10.62
79053;BMP280;68451;49.510;6.026;2023-05-07T00:38:03;98019.34;;;11.57
79053;BMP280;68451;49.510;6.026;2023-05-07T00:40:29;98022.41;;;11.54
79053;BMP280;68451;49.510;6.026;2023-05-07T00:42:55;98029.91;;;11.50
79053;BMP280;68451;49.510;6.026;2023-05-07T00:45:26;98044.94;;;11.55
79053;BMP280;68451;49.510;6.026;2023-05-07T00:47:57;97999.41;;;11.21
79053;BMP280;68451;49.510;6.026;2023-05-07T00:50:23;98013.72;;;11.30
79053;BMP280;68451;49.510;6.026;2023-05-07T00:52:49;97982.25;;;11.13
79053;BMP280;68451;49.510;6.026;2023-05-07T00:55:14;97977.56;;;11.04
79053;BMP280;68451;49.510;6.026;2023-05-07T00:57:41;97790.56;;;9.78
79053;BMP280;68451;49.510;6.026;2023-05-07T01:00:08;98037.97;;;11.37
79053;BMP280;68451;49.510;6.026;2023-05-07T01:02:35;97988.72;;;11.11
79053;BMP280;68451;49.510;6.026;2023-05-07T01:05:01;97948.47;;;10.89
79053;BMP280;68451;49.510;6.026;2023-05-07T01:07:29;98005.75;;;11.25
79053;BMP280;68451;49.510;6.026;2023-05-07T01:09:55;98001.78;;;11.22
79053;BMP280;68451;49.510;6.026;2023-05-07T01:12:22;97978.81;;;11.01
79053;BMP280;68451;49.510;6.026;2023-05-07T01:14:47;98025.13;;;11.36
79053;BMP280;68451;49.510;6.026;2023-05-07T01:17:15;98022.84;;;11.39
79053;BMP280;68451;49.510;6.026;2023-05-07T01:19:41;97969.84;;;11.09
79053;BMP280;68451;49.510;6.026;2023-05-07T01:22:09;98028.88;;;11.40
79053;BMP280;68451;49.510;6.026;2023-05-07T01:24:36;97988.72;;;11.11
79053;BMP280;68451;49.510;6.026;2023-05-07T01:27:02;98031.34;;;11.35
79053;BMP280;68451;49.510;6.026;2023-05-07T01:29:28;97973.47;;;10.96
79053;BMP280;68451;49.510;6.026;2023-05-07T01:31:56;97974.69;;;10.94
79053;BMP280;68451;49.510;6.026;2023-05-07T01:34:25;97950.88;;;10.72
79053;BMP280;68451;49.510;6.026;2023-05-07T01:36:53;97998.91;;;11.01
79053;BMP280;68451;49.510;6.026;2023-05-07T01:39:18;97975.00;;;10.86
79053;BMP280;68451;49.510;6.026;2023-05-07T01:41:44;98029.72;;;11.10
79053;BMP280;68451;49.510;6.026;2023-05-07T01:44:12;97792.28;;;9.55
79053;BMP280;68451;49.510;6.026;2023-05-07T01:46:38;97964.44;;;10.51
79053;BMP280;68451;49.510;6.026;2023-05-07T01:49:04;97944.25;;;10.28
79053;BMP280;68451;49.510;6.026;2023-05-07T01:51:30;98007.84;;;10.63
79053;BMP280;68451;49.510;6.026;2023-05-07T01:53:56;97955.69;;;10.27
79053;BMP280;68451;49.510;6.026;2023-05-07T01:56:24;98008.81;;;10.51
79053;BMP280;68451;49.510;6.026;2023-05-07T01:58:49;98034.41;;;10.60
79053;BMP280;68451;49.510;6.026;2023-05-07T02:01:16;97972.59;;;10.24
79053;BMP280;68451;49.510;6.026;2023-05-07T02:03:41;97831.13;;;9.38
79053;BMP280;68451;49.510;6.026;2023-05-07T02:06:07;98020.41;;;10.55
79053;BMP280;68451;49.510;6.026;2023-05-07T02:08:33;97905.88;;;9.80
79053;BMP280;68451;49.510;6.026;2023-05-07T02:10:58;97918.69;;;9.82
79053;BMP280;68451;49.510;6.026;2023-05-07T02:13:26;98022.31;;;10.48
79053;BMP280;68451;49.510;6.026;2023-05-07T02:15:52;98019.47;;;10.49
79053;BMP280;68451;49.510;6.026;2023-05-07T02:18:18;98021.88;;;10.51
79053;BMP280;68451;49.510;6.026;2023-05-07T02:20:44;97968.75;;;10.27
79053;BMP280;68451;49.510;6.026;2023-05-07T02:23:09;97906.38;;;9.89
79053;BMP280;68451;49.510;6.026;2023-05-07T02:25:35;97997.22;;;10.47
79053;BMP280;68451;49.510;6.026;2023-05-07T02:28:00;97970.94;;;10.30
79053;BMP280;68451;49.510;6.026;2023-05-07T02:30:26;98015.63;;;10.52
79053;BMP280;68451;49.510;6.026;2023-05-07T02:32:51;98000.78;;;10.34
79053;BMP280;68451;49.510;6.026;2023-05-07T02:35:17;97960.94;;;10.09
79053;BMP280;68451;49.510;6.026;2023-05-07T02:37:42;97816.53;;;9.19
79053;BMP280;68451;49.510;6.026;2023-05-07T02:40:08;98022.16;;;10.43
79053;BMP280;68451;49.510;6.026;2023-05-07T02:42:34;97972.28;;;10.14
79053;BMP280;68451;49.510;6.026;2023-05-07T02:45:00;97941.28;;;9.88
79053;BMP280;68451;49.510;6.026;2023-05-07T02:47:25;97957.28;;;9.92
79053;BMP280;68451;49.510;6.026;2023-05-07T02:49:54;97957.13;;;9.86
79053;BMP280;68451;49.510;6.026;2023-05-07T02:52:19;97967.72;;;9.92
79053;BMP280;68451;49.510;6.026;2023-05-07T02:54:45;97974.81;;;9.84
79053;BMP280;68451;49.510;6.026;2023-05-07T02:57:10;98007.09;;;10.08
79053;BMP280;68451;49.510;6.026;2023-05-07T02:59:36;97914.66;;;9.43
79053;BMP280;68451;49.510;6.026;2023-05-07T03:02:01;97977.88;;;9.81
79053;BMP280;68451;49.510;6.026;2023-05-07T03:04:27;98019.16;;;10.03
79053;BMP280;68451;49.510;6.026;2023-05-07T03:06:52;98020.94;;;10.09
79053;BMP280;68451;49.510;6.026;2023-05-07T03:09:18;98020.94;;;10.09
79053;BMP280;68451;49.510;6.026;2023-05-07T03:11:43;98023.16;;;10.05
79053;BMP280;68451;49.510;6.026;2023-05-07T03:14:09;97950.03;;;9.57
79053;BMP280;68451;49.510;6.026;2023-05-07T03:16:34;98016.84;;;9.95
79053;BMP280;68451;49.510;6.026;2023-05-07T03:18:59;97992.13;;;9.79
79053;BMP280;68451;49.510;6.026;2023-05-07T03:21:26;98009.22;;;9.93
79053;BMP280;68451;49.510;6.026;2023-05-07T03:23:51;98006.41;;;9.95
79053;BMP280;68451;49.510;6.026;2023-05-07T03:26:17;98001.84;;;9.90
79053;BMP280;68451;49.510;6.026;2023-05-07T03:28:42;97984.13;;;9.74
79053;BMP280;68451;49.510;6.026;2023-05-07T03:31:08;97969.78;;;9.65
79053;BMP280;68451;49.510;6.026;2023-05-07T03:33:34;97567.41;;;7.04
79053;BMP280;68451;49.510;6.026;2023-05-07T03:36:00;97864.84;;;8.90
79053;BMP280;68451;49.510;6.026;2023-05-07T03:38:26;97885.56;;;9.03
79053;BMP280;68451;49.510;6.026;2023-05-07T03:40:51;97914.09;;;9.16
79053;BMP280;68451;49.510;6.026;2023-05-07T03:43:17;97998.63;;;9.70
79053;BMP280;68451;49.510;6.026;2023-05-07T03:45:42;97960.41;;;9.39
79053;BMP280;68451;49.510;6.026;2023-05-07T03:48:08;98002.16;;;9.57
79053;BMP280;68451;49.510;6.026;2023-05-07T03:50:33;97938.25;;;9.05
79053;BMP280;68451;49.510;6.026;2023-05-07T03:52:59;97987.81;;;9.23
79053;BMP280;68451;49.510;6.026;2023-05-07T03:55:24;98015.94;;;9.39
79053;BMP280;68451;49.510;6.026;2023-05-07T03:57:50;98001.78;;;9.29
79053;BMP280;68451;49.510;6.026;2023-05-07T04:00:16;97924.81;;;8.83
79053;BMP280;68451;49.510;6.026;2023-05-07T04:02:41;98004.81;;;9.26
79053;BMP280;68451;49.510;6.026;2023-05-07T04:05:07;97845.88;;;8.33
79053;BMP280;68451;49.510;6.026;2023-05-07T04:07:33;97991.78;;;9.26
79053;BMP280;68451;49.510;6.026;2023-05-07T04:09:58;97952.91;;;8.99
79053;BMP280;68451;49.510;6.026;2023-05-07T04:12:24;97919.44;;;8.78
79053;BMP280;68451;49.510;6.026;2023-05-07T04:14:49;97865.78;;;8.46
79053;BMP280;68451;49.510;6.026;2023-05-07T04:17:15;97999.94;;;9.36
79053;BMP280;68451;49.510;6.026;2023-05-07T04:19:41;98006.31;;;9.40
79053;BMP280;68451;49.510;6.026;2023-05-07T04:22:10;98002.09;;;9.39
79053;BMP280;68451;49.510;6.026;2023-05-07T04:24:36;97836.00;;;8.42
79053;BMP280;68451;49.510;6.026;2023-05-07T04:27:02;97991.63;;;9.46
79053;BMP280;68451;49.510;6.026;2023-05-07T04:29:27;97983.19;;;9.50
79053;BMP280;68451;49.510;6.026;2023-05-07T04:31:53;97988.69;;;9.60
79053;BMP280;68451;49.510;6.026;2023-05-07T04:34:21;97802.50;;;8.52
79053;BMP280;68451;49.510;6.026;2023-05-07T04:36:47;97988.34;;;9.75
79053;BMP280;68451;49.510;6.026;2023-05-07T04:39:13;98020.47;;;9.94
79053;BMP280;68451;49.510;6.026;2023-05-07T04:41:38;97975.81;;;9.65
79053;BMP280;68451;49.510;6.026;2023-05-07T04:44:04;97946.84;;;9.55
79053;BMP280;68451;49.510;6.026;2023-05-07T04:46:31;97858.53;;;9.04
79053;BMP280;68451;49.510;6.026;2023-05-07T04:48:56;97947.13;;;9.65
79053;BMP280;68451;49.510;6.026;2023-05-07T04:51:22;97862.19;;;9.21
79053;BMP280;68451;49.510;6.026;2023-05-07T04:53:48;97978.28;;;9.97
79053;BMP280;68451;49.510;6.026;2023-05-07T04:56:28;97978.00;;;10.05
79053;BMP280;68451;49.510;6.026;2023-05-07T04:58:55;98018.63;;;10.37
79053;BMP280;68451;49.510;6.026;2023-05-07T05:03:55;98031.09;;;10.53
79053;BMP280;68451;49.510;6.026;2023-05-07T05:06:21;97965.47;;;10.13
79053;BMP280;68451;49.510;6.026;2023-05-07T05:08:46;97988.75;;;10.33
79053;BMP280;68451;49.510;6.026;2023-05-07T05:11:12;98016.34;;;10.59
79053;BMP280;68451;49.510;6.026;2023-05-07T05:13:37;98021.63;;;10.70
79053;BMP280;68451;49.510;6.026;2023-05-07T05:16:03;97949.63;;;10.33
79053;BMP280;68451;49.510;6.026;2023-05-07T05:18:28;98025.66;;;10.85
79053;BMP280;68451;49.510;6.026;2023-05-07T05:20:54;97984.22;;;10.58
79053;BMP280;68451;49.510;6.026;2023-05-07T05:23:19;98010.56;;;10.87
79053;BMP280;68451;49.510;6.026;2023-05-07T05:25:45;98000.69;;;10.89
79053;BMP280;68451;49.510;6.026;2023-05-07T05:28:10;98023.69;;;11.10
79053;BMP280;68451;49.510;6.026;2023-05-07T05:30:36;98054.44;;;11.38
79053;BMP280;68451;49.510;6.026;2023-05-07T05:33:02;98015.00;;;11.28
79053;BMP280;68451;49.510;6.026;2023-05-07T05:35:27;97997.72;;;11.27
79053;BMP280;68451;49.510;6.026;2023-05-07T05:37:53;97940.97;;;11.04
79053;BMP280;68451;49.510;6.026;2023-05-07T05:40:18;98035.22;;;11.74
79053;BMP280;68451;49.510;6.026;2023-05-07T05:42:44;98041.00;;;11.87
79053;BMP280;68451;49.510;6.026;2023-05-07T05:45:10;98000.53;;;11.78
79053;BMP280;68451;49.510;6.026;2023-05-07T05:47:35;98025.84;;;12.01
79053;BMP280;68451;49.510;6.026;2023-05-07T05:50:01;98023.09;;;12.19
79053;BMP280;68451;49.510;6.026;2023-05-07T05:52:26;98043.53;;;12.45
79053;BMP280;68451;49.510;6.026;2023-05-07T05:54:51;98025.19;;;12.45
79053;BMP280;68451;49.510;6.026;2023-05-07T05:57:17;98065.44;;;12.79
79053;BMP280;68451;49.510;6.026;2023-05-07T05:59:43;98038.00;;;12.70
79053;BMP280;68451;49.510;6.026;2023-05-07T06:02:09;98048.31;;;12.88
79053;BMP280;68451;49.510;6.026;2023-05-07T06:04:34;98083.13;;;13.12
79053;BMP280;68451;49.510;6.026;2023-05-07T06:07:00;98080.22;;;13.25
79053;BMP280;68451;49.510;6.026;2023-05-07T06:09:25;98063.91;;;13.23
79053;BMP280;68451;49.510;6.026;2023-05-07T06:11:51;97808.09;;;11.71
79053;BMP280;68451;49.510;6.026;2023-05-07T06:14:16;98049.88;;;13.29
79053;BMP280;68451;49.510;6.026;2023-05-07T06:16:42;98035.34;;;13.38
79053;BMP280;68451;49.510;6.026;2023-05-07T06:19:07;98027.16;;;13.52
79053;BMP280;68451;49.510;6.026;2023-05-07T06:21:33;98062.41;;;13.94
79053;BMP280;68451;49.510;6.026;2023-05-07T06:23:58;98072.25;;;14.37
79053;BMP280;68451;49.510;6.026;2023-05-07T06:26:23;98001.25;;;14.10
79053;BMP280;68451;49.510;6.026;2023-05-07T06:28:49;98065.41;;;14.79
79053;BMP280;68451;49.510;6.026;2023-05-07T06:31:39;98079.84;;;15.26
79053;BMP280;68451;49.510;6.026;2023-05-07T06:34:05;98025.44;;;15.04
79053;BMP280;68451;49.510;6.026;2023-05-07T06:36:30;98084.34;;;15.57
79053;BMP280;68451;49.510;6.026;2023-05-07T06:38:56;98084.69;;;15.65
79053;BMP280;68451;49.510;6.026;2023-05-07T06:41:22;98062.22;;;15.58
79053;BMP280;68451;49.510;6.026;2023-05-07T06:43:47;98064.34;;;15.56
79053;BMP280;68451;49.510;6.026;2023-05-07T06:46:13;98043.63;;;15.38
79053;BMP280;68451;49.510;6.026;2023-05-07T06:48:38;98085.22;;;15.67
79053;BMP280;68451;49.510;6.026;2023-05-07T06:51:04;98050.25;;;15.45
79053;BMP280;68451;49.510;6.026;2023-05-07T06:53:29;98006.97;;;15.26
79053;BMP280;68451;49.510;6.026;2023-05-07T06:55:56;98033.56;;;15.56
79053;BMP280;68451;49.510;6.026;2023-05-07T06:58:21;98031.72;;;15.57
79053;BMP280;68451;49.510;6.026;2023-05-07T07:00:47;98035.09;;;15.84
79053;BMP280;68451;49.510;6.026;2023-05-07T07:03:12;98042.50;;;15.92
79053;BMP280;68451;49.510;6.026;2023-05-07T07:05:39;98044.13;;;16.03
79053;BMP280;68451;49.510;6.026;2023-05-07T07:08:05;98049.25;;;16.25
79053;BMP280;68451;49.510;6.026;2023-05-07T07:10:30;98015.78;;;16.21
79053;BMP280;68451;49.510;6.026;2023-05-07T07:12:56;97998.69;;;16.23
79053;BMP280;68451;49.510;6.026;2023-05-07T07:15:21;98066.09;;;16.66
79053;BMP280;68451;49.510;6.026;2023-05-07T07:17:48;98035.94;;;16.42
79053;BMP280;68451;49.510;6.026;2023-05-07T07:20:14;98063.41;;;16.61
79053;BMP280;68451;49.510;6.026;2023-05-07T07:22:39;98060.03;;;16.71
79053;BMP280;68451;49.510;6.026;2023-05-07T07:25:05;98075.75;;;17.18
79053;BMP280;68451;49.510;6.026;2023-05-07T07:27:31;98072.34;;;17.58
79053;BMP280;68451;49.510;6.026;2023-05-07T07:29:56;98075.25;;;17.97
79053;BMP280;68451;49.510;6.026;2023-05-07T07:32:22;97973.63;;;17.43
79053;BMP280;68451;49.510;6.026;2023-05-07T07:34:47;98051.44;;;18.17
79053;BMP280;68451;49.510;6.026;2023-05-07T07:37:12;98023.38;;;18.41
79053;BMP280;68451;49.510;6.026;2023-05-07T07:39:38;98021.47;;;18.52
79053;BMP280;68451;49.510;6.026;2023-05-07T07:42:03;98084.03;;;18.87
79053;BMP280;68451;49.510;6.026;2023-05-07T07:44:29;98074.13;;;18.38
79053;BMP280;68451;49.510;6.026;2023-05-07T07:46:55;98071.00;;;18.21
79053;BMP280;68451;49.510;6.026;2023-05-07T07:49:20;98064.94;;;18.20
79053;BMP280;68451;49.510;6.026;2023-05-07T07:51:46;98063.56;;;18.28
79053;BMP280;68451;49.510;6.026;2023-05-07T07:54:11;98056.91;;;18.51
79053;BMP280;68451;49.510;6.026;2023-05-07T07:56:37;98086.66;;;18.87
79053;BMP280;68451;49.510;6.026;2023-05-07T07:59:04;97979.34;;;18.16
79053;BMP280;68451;49.510;6.026;2023-05-07T08:01:32;98039.66;;;18.73
79053;BMP280;68451;49.510;6.026;2023-05-07T08:04:00;98075.13;;;19.16
79053;BMP280;68451;49.510;6.026;2023-05-07T08:06:28;98084.75;;;19.46
79053;BMP280;68451;49.510;6.026;2023-05-07T08:08:54;98096.31;;;19.94
79053;BMP280;68451;49.510;6.026;2023-05-07T08:11:20;98070.66;;;20.42
79053;BMP280;68451;49.510;6.026;2023-05-07T08:13:47;98064.81;;;20.64
79053;BMP280;68451;49.510;6.026;2023-05-07T08:16:13;98098.28;;;20.84
79053;BMP280;68451;49.510;6.026;2023-05-07T08:18:39;98106.97;;;21.08
79053;BMP280;68451;49.510;6.026;2023-05-07T08:21:05;98089.59;;;21.39
79053;BMP280;68451;49.510;6.026;2023-05-07T08:23:31;98081.81;;;21.62
79053;BMP280;68451;49.510;6.026;2023-05-07T08:25:59;98102.88;;;22.23
79053;BMP280;68451;49.510;6.026;2023-05-07T08:28:25;98080.03;;;22.63
79053;BMP280;68451;49.510;6.026;2023-05-07T08:30:51;98069.53;;;23.43
79053;BMP280;68451;49.510;6.026;2023-05-07T08:33:17;98069.94;;;24.03
79053;BMP280;68451;49.510;6.026;2023-05-07T08:35:44;98077.06;;;24.56
79053;BMP280;68451;49.510;6.026;2023-05-07T08:38:10;98068.47;;;24.68
79053;BMP280;68451;49.510;6.026;2023-05-07T08:40:37;98044.91;;;24.61
79053;BMP280;68451;49.510;6.026;2023-05-07T08:43:05;98056.16;;;24.10
79053;BMP280;68451;49.510;6.026;2023-05-07T08:45:33;98066.44;;;23.72
79053;BMP280;68451;49.510;6.026;2023-05-07T08:48:00;98066.75;;;23.48
79053;BMP280;68451;49.510;6.026;2023-05-07T08:50:27;97994.09;;;23.56
79053;BMP280;68451;49.510;6.026;2023-05-07T08:52:56;98082.28;;;24.61
79053;BMP280;68451;49.510;6.026;2023-05-07T08:55:24;98070.69;;;24.74
79053;BMP280;68451;49.510;6.026;2023-05-07T08:57:51;98090.28;;;25.44
79053;BMP280;68451;49.510;6.026;2023-05-07T09:00:18;98072.22;;;25.66
79053;BMP280;68451;49.510;6.026;2023-05-07T09:02:43;98027.69;;;25.53
79053;BMP280;68451;49.510;6.026;2023-05-07T09:05:09;98074.53;;;25.76
79053;BMP280;68451;49.510;6.026;2023-05-07T09:07:35;98061.25;;;26.06
79053;BMP280;68451;49.510;6.026;2023-05-07T09:10:02;98071.03;;;26.48
79053;BMP280;68451;49.510;6.026;2023-05-07T09:12:29;98052.09;;;26.24
79053;BMP280;68451;49.510;6.026;2023-05-07T09:14:55;98076.31;;;26.27
79053;BMP280;68451;49.510;6.026;2023-05-07T09:17:21;98044.50;;;25.79
79053;BMP280;68451;49.510;6.026;2023-05-07T09:19:47;97962.03;;;24.92
79053;BMP280;68451;49.510;6.026;2023-05-07T09:22:13;98079.59;;;25.61
79053;BMP280;68451;49.510;6.026;2023-05-07T09:24:39;98024.28;;;25.35
79053;BMP280;68451;49.510;6.026;2023-05-07T09:27:05;98050.19;;;25.52
79053;BMP280;68451;49.510;6.026;2023-05-07T09:29:31;98049.81;;;25.88
79053;BMP280;68451;49.510;6.026;2023-05-07T09:32:01;98030.13;;;26.01
79053;BMP280;68451;49.510;6.026;2023-05-07T09:34:29;98084.00;;;26.38
79053;BMP280;68451;49.510;6.026;2023-05-07T09:36:55;98042.28;;;26.37
79053;BMP280;68451;49.510;6.026;2023-05-07T09:39:22;98033.63;;;26.31
79053;BMP280;68451;49.510;6.026;2023-05-07T09:41:48;98025.25;;;26.41
79053;BMP280;68451;49.510;6.026;2023-05-07T09:44:15;98067.63;;;26.68
79053;BMP280;68451;49.510;6.026;2023-05-07T09:46:42;98031.44;;;26.33
79053;BMP280;68451;49.510;6.026;2023-05-07T09:49:13;98064.44;;;26.46
79053;BMP280;68451;49.510;6.026;2023-05-07T09:51:48;98055.22;;;26.26
79053;BMP280;68451;49.510;6.026;2023-05-07T09:54:14;98066.00;;;26.00
79053;BMP280;68451;49.510;6.026;2023-05-07T09:56:40;98028.81;;;25.35
79053;BMP280;68451;49.510;6.026;2023-05-07T09:59:12;98066.25;;;25.26
79053;BMP280;68451;49.510;6.026;2023-05-07T10:01:38;98048.44;;;24.87
79053;BMP280;68451;49.510;6.026;2023-05-07T10:04:06;98026.59;;;24.29
79053;BMP280;68451;49.510;6.026;2023-05-07T10:06:35;98046.19;;;23.93
79053;BMP280;68451;49.510;6.026;2023-05-07T10:09:04;98034.50;;;23.50
79053;BMP280;68451;49.510;6.026;2023-05-07T10:11:34;97938.75;;;22.23
79053;BMP280;68451;49.510;6.026;2023-05-07T10:14:04;98062.75;;;22.19
79053;BMP280;68451;49.510;6.026;2023-05-07T10:16:34;98074.88;;;21.79
79053;BMP280;68451;49.510;6.026;2023-05-07T10:19:05;98044.06;;;21.46
79053;BMP280;68451;49.510;6.026;2023-05-07T10:21:36;98067.38;;;21.68
79053;BMP280;68451;49.510;6.026;2023-05-07T10:24:09;98062.84;;;21.68
79053;BMP280;68451;49.510;6.026;2023-05-07T10:26:40;98068.41;;;21.85
79053;BMP280;68451;49.510;6.026;2023-05-07T10:29:14;97994.41;;;21.47
79053;BMP280;68451;49.510;6.026;2023-05-07T10:31:59;98037.47;;;21.76
79053;BMP280;68451;49.510;6.026;2023-05-07T10:34:36;98086.97;;;22.04
79053;BMP280;68451;49.510;6.026;2023-05-07T10:37:03;98074.78;;;22.17
79053;BMP280;68451;49.510;6.026;2023-05-07T10:39:29;98091.78;;;22.02
79053;BMP280;68451;49.510;6.026;2023-05-07T10:41:55;98092.41;;;22.13
79053;BMP280;68451;49.510;6.026;2023-05-07T10:44:25;98005.84;;;21.61
79053;BMP280;68451;49.510;6.026;2023-05-07T10:47:04;98059.72;;;21.80
79053;BMP280;68451;49.510;6.026;2023-05-07T10:53:21;98067.69;;;21.48
79053;BMP280;68451;49.510;6.026;2023-05-07T10:55:51;98093.72;;;21.64
79053;BMP280;68451;49.510;6.026;2023-05-07T10:58:25;98092.16;;;21.44
79053;BMP280;68451;49.510;6.026;2023-05-07T11:00:59;98091.53;;;21.15
79053;BMP280;68451;49.510;6.026;2023-05-07T11:03:27;98086.81;;;20.88
79053;BMP280;68451;49.510;6.026;2023-05-07T11:08:57;98080.84;;;20.54
79053;BMP280;68451;49.510;6.026;2023-05-07T11:17:09;98097.13;;;20.71
79053;BMP280;68451;49.510;6.026;2023-05-07T11:19:47;98091.97;;;20.80
79053;BMP280;68451;49.510;6.026;2023-05-07T11:24:48;98095.53;;;21.13
79053;BMP280;68451;49.510;6.026;2023-05-07T11:27:23;98087.66;;;21.45
79053;BMP280;68451;49.510;6.026;2023-05-07T11:29:51;98087.28;;;21.52
79053;BMP280;68451;49.510;6.026;2023-05-07T11:32:22;98083.84;;;21.51
79053;BMP280;68451;49.510;6.026;2023-05-07T11:34:52;98079.75;;;21.40
79053;BMP280;68451;49.510;6.026;2023-05-07T11:37:19;98095.81;;;21.30
79053;BMP280;68451;49.510;6.026;2023-05-07T11:39:45;98096.94;;;21.29
79053;BMP280;68451;49.510;6.026;2023-05-07T11:42:27;98094.47;;;21.32
79053;BMP280;68451;49.510;6.026;2023-05-07T11:44:54;98094.22;;;21.10
79053;BMP280;68451;49.510;6.026;2023-05-07T11:47:29;98094.47;;;20.90
79053;BMP280;68451;49.510;6.026;2023-05-07T11:50:07;98089.03;;;20.81
79053;BMP280;68451;49.510;6.026;2023-05-07T11:52:35;98090.41;;;20.79
79053;BMP280;68451;49.510;6.026;2023-05-07T11:55:03;98094.53;;;20.85
79053;BMP280;68451;49.510;6.026;2023-05-07T11:57:30;98095.13;;;20.82
79053;BMP280;68451;49.510;6.026;2023-05-07T12:00:00;98096.75;;;20.78
79053;BMP280;68451;49.510;6.026;2023-05-07T12:02:28;98095.31;;;20.67
79053;BMP280;68451;49.510;6.026;2023-05-07T12:04:55;98090.41;;;20.79
79053;BMP280;68451;49.510;6.026;2023-05-07T12:07:23;98072.94;;;20.73
79053;BMP280;68451;49.510;6.026;2023-05-07T12:09:51;98095.91;;;20.82
79053;BMP280;68451;49.510;6.026;2023-05-07T12:12:18;98094.69;;;20.75
79053;BMP280;68451;49.510;6.026;2023-05-07T12:14:45;98096.03;;;20.72
79053;BMP280;68451;49.510;6.026;2023-05-07T12:17:14;98071.63;;;20.51
79053;BMP280;68451;49.510;6.026;2023-05-07T12:19:44;98097.06;;;20.52
79053;BMP280;68451;49.510;6.026;2023-05-07T12:22:11;98058.66;;;20.21
79053;BMP280;68451;49.510;6.026;2023-05-07T12:24:48;98093.19;;;20.16
79053;BMP280;68451;49.510;6.026;2023-05-07T12:27:14;98098.38;;;20.26
79053;BMP280;68451;49.510;6.026;2023-05-07T12:29:44;98094.69;;;20.22
79053;BMP280;68451;49.510;6.026;2023-05-07T12:32:15;98096.72;;;20.35
79053;BMP280;68451;49.510;6.026;2023-05-07T12:34:41;98087.78;;;20.26
79053;BMP280;68451;49.510;6.026;2023-05-07T12:37:07;98072.63;;;20.03
79053;BMP280;68451;49.510;6.026;2023-05-07T12:39:32;98063.22;;;19.87
79053;BMP280;68451;49.510;6.026;2023-05-07T12:41:59;98077.94;;;20.03
79053;BMP280;68451;49.510;6.026;2023-05-07T12:44:28;97951.53;;;19.17
79053;BMP280;68451;49.510;6.026;2023-05-07T12:46:54;97968.16;;;19.22
79053;BMP280;68451;49.510;6.026;2023-05-07T12:49:20;98017.63;;;19.61
79053;BMP280;68451;49.510;6.026;2023-05-07T12:51:47;97968.59;;;19.35
79053;BMP280;68451;49.510;6.026;2023-05-07T12:54:14;98026.38;;;19.90
79053;BMP280;68451;49.510;6.026;2023-05-07T12:56:39;98066.56;;;20.26
79053;BMP280;68451;49.510;6.026;2023-05-07T12:59:05;98055.00;;;20.17
79053;BMP280;68451;49.510;6.026;2023-05-07T13:01:31;98109.38;;;20.43
79053;BMP280;68451;49.510;6.026;2023-05-07T13:04:00;97972.34;;;19.62
79053;BMP280;68451;49.510;6.026;2023-05-07T13:06:26;98061.53;;;20.30
79053;BMP280;68451;49.510;6.026;2023-05-07T13:08:51;98076.00;;;20.37
79053;BMP280;68451;49.510;6.026;2023-05-07T13:11:17;98060.22;;;20.22
79053;BMP280;68451;49.510;6.026;2023-05-07T13:13:42;98089.16;;;20.47
79053;BMP280;68451;49.510;6.026;2023-05-07T13:16:10;98114.97;;;20.66
79053;BMP280;68451;49.510;6.026;2023-05-07T13:18:37;98049.41;;;20.19
79053;BMP280;68451;49.510;6.026;2023-05-07T13:21:03;98098.75;;;20.43
79053;BMP280;68451;49.510;6.026;2023-05-07T13:23:28;98061.16;;;20.13
79053;BMP280;68451;49.510;6.026;2023-05-07T13:25:54;98074.53;;;20.26
79053;BMP280;68451;49.510;6.026;2023-05-07T13:28:21;98095.22;;;20.53
79053;BMP280;68451;49.510;6.026;2023-05-07T13:30:47;98113.38;;;20.65
79053;BMP280;68451;49.510;6.026;2023-05-07T13:33:13;98116.41;;;20.77
79053;BMP280;68451;49.510;6.026;2023-05-07T13:35:40;98071.66;;;20.70
79053;BMP280;68451;49.510;6.026;2023-05-07T13:38:06;98096.00;;;20.96
79053;BMP280;68451;49.510;6.026;2023-05-07T13:40:31;98111.13;;;21.19
79053;BMP280;68451;49.510;6.026;2023-05-07T13:42:58;98113.13;;;21.27
79053;BMP280;68451;49.510;6.026;2023-05-07T13:45:24;97992.00;;;20.57
79053;BMP280;68451;49.510;6.026;2023-05-07T13:47:51;97945.75;;;20.44
79053;BMP280;68451;49.510;6.026;2023-05-07T13:50:17;98086.94;;;21.39
79053;BMP280;68451;49.510;6.026;2023-05-07T13:52:44;98081.25;;;21.46
79053;BMP280;68451;49.510;6.026;2023-05-07T13:55:16;98103.41;;;21.74
79053;BMP280;68451;49.510;6.026;2023-05-07T13:57:42;98098.50;;;21.81
79053;BMP280;68451;49.510;6.026;2023-05-07T14:00:08;98099.84;;;21.97
79053;BMP280;68451;49.510;6.026;2023-05-07T14:02:34;98098.53;;;22.13
79053;BMP280;68451;49.510;6.026;2023-05-07T14:04:59;97975.97;;;21.36
79053;BMP280;68451;49.510;6.026;2023-05-07T14:07:25;98080.09;;;22.03
79053;BMP280;68451;49.510;6.026;2023-05-07T14:09:50;98086.91;;;22.23
79053;BMP280;68451;49.510;6.026;2023-05-07T14:12:16;98097.88;;;22.49
79053;BMP280;68451;49.510;6.026;2023-05-07T14:14:41;98101.00;;;22.64
79053;BMP280;68451;49.510;6.026;2023-05-07T14:17:07;97984.75;;;22.10
79053;BMP280;68451;49.510;6.026;2023-05-07T14:19:33;98088.22;;;22.80
79053;BMP280;68451;49.510;6.026;2023-05-07T14:21:59;98087.41;;;22.93
79053;BMP280;68451;49.510;6.026;2023-05-07T14:24:24;98073.50;;;22.96
79053;BMP280;68451;49.510;6.026;2023-05-07T14:26:50;98062.47;;;23.03